sensor_id;sensor_type;location;lat;lon;timestamp;temperature;humidity
17774;DHT22;9011;33.236;-97.118;2023-08-20T00:01:15;41.90;59.70
17774;DHT22;9011;33.236;-97.118;2023-08-20T00:03:46;42.00;59.30
17774;DHT22;9011;33.236;-97.118;2023-08-20T00:06:15;41.80;59.30
17774;DHT22;9011;33.236;-97.118;2023-08-20T00:08:43;42.00;58.90
17774;DHT22;9011;33.236;-97.118;2023-08-20T00:11:12;41.70;60.20
17774;DHT22;9011;33.236;-97.118;2023-08-20T00:13:42;41.30;60.20
17774;DHT22;9011;33.236;-97.118;2023-08-20T00:16:11;41.20;59.70
17774;DHT22;9011;33.236;-97.118;2023-08-20T00:18:40;40.90;61.00
17774;DHT22;9011;33.236;-97.118;2023-08-20T00:21:08;40.80;60.30
17774;DHT22;9011;33.236;-97.118;2023-08-20T00:23:37;40.60;60.90
17774;DHT22;9011;33.236;-97.118;2023-08-20T00:26:06;40.30;62.10
17774;DHT22;9011;33.236;-97.118;2023-08-20T00:28:34;40.30;62.10
17774;DHT22;9011;33.236;-97.118;2023-08-20T00:31:06;40.00;62.70
17774;DHT22;9011;33.236;-97.118;2023-08-20T00:33:34;39.90;62.00
17774;DHT22;9011;33.236;-97.118;2023-08-20T00:36:03;39.80;62.00
17774;DHT22;9011;33.236;-97.118;2023-08-20T00:38:31;39.90;61.90
17774;DHT22;9011;33.236;-97.118;2023-08-20T00:41:00;39.80;62.80
17774;DHT22;9011;33.236;-97.118;2023-08-20T00:43:28;39.60;63.10
17774;DHT22;9011;33.236;-97.118;2023-08-20T00:45:58;39.60;63.40
17774;DHT22;9011;33.236;-97.118;2023-08-20T00:48:28;39.60;63.70
17774;DHT22;9011;33.236;-97.118;2023-08-20T00:50:57;39.40;64.20
17774;DHT22;9011;33.236;-97.118;2023-08-20T00:53:25;39.10;64.70
17774;DHT22;9011;33.236;-97.118;2023-08-20T00:55:54;39.20;64.50
17774;DHT22;9011;33.236;-97.118;2023-08-20T00:58:22;39.00;64.40
17774;DHT22;9011;33.236;-97.118;2023-08-20T01:00:52;39.10;64.50
17774;DHT22;9011;33.236;-97.118;2023-08-20T01:03:20;38.90;64.90
17774;DHT22;9011;33.236;-97.118;2023-08-20T01:05:57;38.80;65.30
17774;DHT22;9011;33.236;-97.118;2023-08-20T01:08:33;38.60;66.00
17774;DHT22;9011;33.236;-97.118;2023-08-20T01:11:11;38.40;66.30
17774;DHT22;9011;33.236;-97.118;2023-08-20T01:13:40;38.20;67.30
17774;DHT22;9011;33.236;-97.118;2023-08-20T01:16:08;38.10;67.20
17774;DHT22;9011;33.236;-97.118;2023-08-20T01:18:37;38.20;67.10
17774;DHT22;9011;33.236;-97.118;2023-08-20T01:21:17;38.00;68.00
17774;DHT22;9011;33.236;-97.118;2023-08-20T01:24:16;37.80;68.50
17774;DHT22;9011;33.236;-97.118;2023-08-20T01:26:58;37.70;69.10
17774;DHT22;9011;33.236;-97.118;2023-08-20T01:29:30;37.70;69.60
17774;DHT22;9011;33.236;-97.118;2023-08-20T01:31:59;37.50;70.00
17774;DHT22;9011;33.236;-97.118;2023-08-20T01:34:29;37.50;70.10
17774;DHT22;9011;33.236;-97.118;2023-08-20T01:36:57;37.30;70.30
17774;DHT22;9011;33.236;-97.118;2023-08-20T01:39:25;37.30;70.30
17774;DHT22;9011;33.236;-97.118;2023-08-20T01:41:54;37.20;70.90
17774;DHT22;9011;33.236;-97.118;2023-08-20T01:44:23;37.10;71.10
17774;DHT22;9011;33.236;-97.118;2023-08-20T01:46:53;37.10;71.30
17774;DHT22;9011;33.236;-97.118;2023-08-20T01:49:21;37.10;71.70
17774;DHT22;9011;33.236;-97.118;2023-08-20T01:51:50;37.00;72.20
17774;DHT22;9011;33.236;-97.118;2023-08-20T01:54:18;36.90;72.60
17774;DHT22;9011;33.236;-97.118;2023-08-20T01:56:46;36.80;73.40
17774;DHT22;9011;33.236;-97.118;2023-08-20T01:59:15;36.80;73.00
17774;DHT22;9011;33.236;-97.118;2023-08-20T02:01:44;36.70;73.10
17774;DHT22;9011;33.236;-97.118;2023-08-20T02:04:14;36.80;73.00
17774;DHT22;9011;33.236;-97.118;2023-08-20T02:06:42;36.60;73.30
17774;DHT22;9011;33.236;-97.118;2023-08-20T02:09:11;36.60;73.40
17774;DHT22;9011;33.236;-97.118;2023-08-20T02:11:39;36.50;74.00
17774;DHT22;9011;33.236;-97.118;2023-08-20T02:14:08;36.30;74.30
17774;DHT22;9011;33.236;-97.118;2023-08-20T02:16:36;36.30;74.60
17774;DHT22;9011;33.236;-97.118;2023-08-20T02:19:04;36.20;75.20
17774;DHT22;9011;33.236;-97.118;2023-08-20T02:21:34;36.10;75.50
17774;DHT22;9011;33.236;-97.118;2023-08-20T02:24:03;36.00;75.80
17774;DHT22;9011;33.236;-97.118;2023-08-20T02:26:31;35.90;76.40
17774;DHT22;9011;33.236;-97.118;2023-08-20T02:29:00;35.90;76.60
17774;DHT22;9011;33.236;-97.118;2023-08-20T02:31:28;36.00;76.90
17774;DHT22;9011;33.236;-97.118;2023-08-20T02:33:57;36.00;76.80
17774;DHT22;9011;33.236;-97.118;2023-08-20T02:36:25;35.90;77.20
17774;DHT22;9011;33.236;-97.118;2023-08-20T02:38:55;35.70;77.70
17774;DHT22;9011;33.236;-97.118;2023-08-20T02:41:23;35.60;78.40
17774;DHT22;9011;33.236;-97.118;2023-08-20T02:43:51;35.60;78.30
17774;DHT22;9011;33.236;-97.118;2023-08-20T02:46:21;35.60;78.90
17774;DHT22;9011;33.236;-97.118;2023-08-20T02:48:49;35.40;79.10
17774;DHT22;9011;33.236;-97.118;2023-08-20T02:51:17;35.40;79.10
17774;DHT22;9011;33.236;-97.118;2023-08-20T02:53:46;35.50;79.60
17774;DHT22;9011;33.236;-97.118;2023-08-20T02:56:15;35.30;79.70
17774;DHT22;9011;33.236;-97.118;2023-08-20T02:58:44;35.30;80.50
17774;DHT22;9011;33.236;-97.118;2023-08-20T03:01:19;35.10;81.00
17774;DHT22;9011;33.236;-97.118;2023-08-20T03:03:48;35.10;81.40
17774;DHT22;9011;33.236;-97.118;2023-08-20T03:06:16;35.20;81.70
17774;DHT22;9011;33.236;-97.118;2023-08-20T03:08:45;35.10;81.80
17774;DHT22;9011;33.236;-97.118;2023-08-20T03:11:15;35.00;82.10
17774;DHT22;9011;33.236;-97.118;2023-08-20T03:13:44;34.90;82.70
17774;DHT22;9011;33.236;-97.118;2023-08-20T03:16:12;34.70;83.20
17774;DHT22;9011;33.236;-97.118;2023-08-20T03:18:41;34.60;83.90
17774;DHT22;9011;33.236;-97.118;2023-08-20T03:21:09;34.70;84.10
17774;DHT22;9011;33.236;-97.118;2023-08-20T03:23:37;34.50;83.90
17774;DHT22;9011;33.236;-97.118;2023-08-20T03:26:05;34.50;84.10
17774;DHT22;9011;33.236;-97.118;2023-08-20T03:28:35;34.50;84.30
17774;DHT22;9011;33.236;-97.118;2023-08-20T03:31:03;34.40;84.50
17774;DHT22;9011;33.236;-97.118;2023-08-20T03:33:32;34.20;84.70
17774;DHT22;9011;33.236;-97.118;2023-08-20T03:36:00;34.30;84.90
17774;DHT22;9011;33.236;-97.118;2023-08-20T03:38:28;34.10;85.20
17774;DHT22;9011;33.236;-97.118;2023-08-20T03:40:56;34.20;85.50
17774;DHT22;9011;33.236;-97.118;2023-08-20T03:43:25;34.10;85.40
17774;DHT22;9011;33.236;-97.118;2023-08-20T03:45:55;33.90;86.00
17774;DHT22;9011;33.236;-97.118;2023-08-20T03:48:23;33.90;86.60
17774;DHT22;9011;33.236;-97.118;2023-08-20T03:50:52;33.80;86.30
17774;DHT22;9011;33.236;-97.118;2023-08-20T03:53:20;33.70;86.50
17774;DHT22;9011;33.236;-97.118;2023-08-20T03:55:48;33.60;86.90
17774;DHT22;9011;33.236;-97.118;2023-08-20T03:58:17;33.50;87.60
17774;DHT22;9011;33.236;-97.118;2023-08-20T04:00:45;33.40;87.80
17774;DHT22;9011;33.236;-97.118;2023-08-20T04:03:15;33.40;88.10
17774;DHT22;9011;33.236;-97.118;2023-08-20T04:05:45;33.30;88.10
17774;DHT22;9011;33.236;-97.118;2023-08-20T04:08:13;33.30;88.40
17774;DHT22;9011;33.236;-97.118;2023-08-20T04:10:44;33.20;88.50
17774;DHT22;9011;33.236;-97.118;2023-08-20T04:13:13;33.10;88.70
17774;DHT22;9011;33.236;-97.118;2023-08-20T04:15:42;33.00;89.00
17774;DHT22;9011;33.236;-97.118;2023-08-20T04:18:11;33.00;89.30
17774;DHT22;9011;33.236;-97.118;2023-08-20T04:20:40;33.00;89.60
17774;DHT22;9011;33.236;-97.118;2023-08-20T04:23:09;33.00;89.70
17774;DHT22;9011;33.236;-97.118;2023-08-20T04:25:38;32.90;90.00
17774;DHT22;9011;33.236;-97.118;2023-08-20T04:28:06;32.80;90.00
17774;DHT22;9011;33.236;-97.118;2023-08-20T04:30:35;32.80;90.00
17774;DHT22;9011;33.236;-97.118;2023-08-20T04:33:04;32.70;90.10
17774;DHT22;9011;33.236;-97.118;2023-08-20T04:35:33;32.60;90.30
17774;DHT22;9011;33.236;-97.118;2023-08-20T04:38:03;32.50;90.60
17774;DHT22;9011;33.236;-97.118;2023-08-20T04:40:32;32.40;90.80
17774;DHT22;9011;33.236;-97.118;2023-08-20T04:43:00;32.30;91.00
17774;DHT22;9011;33.236;-97.118;2023-08-20T04:45:28;32.40;91.10
17774;DHT22;9011;33.236;-97.118;2023-08-20T04:47:56;32.30;91.10
17774;DHT22;9011;33.236;-97.118;2023-08-20T04:50:25;32.30;91.20
17774;DHT22;9011;33.236;-97.118;2023-08-20T04:52:53;32.30;91.20
17774;DHT22;9011;33.236;-97.118;2023-08-20T04:55:23;32.20;91.20
17774;DHT22;9011;33.236;-97.118;2023-08-20T04:57:51;32.20;91.10
17774;DHT22;9011;33.236;-97.118;2023-08-20T05:00:21;32.20;91.00
17774;DHT22;9011;33.236;-97.118;2023-08-20T05:02:49;32.20;91.10
17774;DHT22;9011;33.236;-97.118;2023-08-20T05:05:18;32.20;91.10
17774;DHT22;9011;33.236;-97.118;2023-08-20T05:07:46;32.20;91.10
17774;DHT22;9011;33.236;-97.118;2023-08-20T05:10:14;32.20;91.20
17774;DHT22;9011;33.236;-97.118;2023-08-20T05:12:44;32.20;91.20
17774;DHT22;9011;33.236;-97.118;2023-08-20T05:15:13;32.20;91.10
17774;DHT22;9011;33.236;-97.118;2023-08-20T05:17:41;32.20;91.30
17774;DHT22;9011;33.236;-97.118;2023-08-20T05:20:10;32.10;91.10
17774;DHT22;9011;33.236;-97.118;2023-08-20T05:22:39;32.10;91.30
17774;DHT22;9011;33.236;-97.118;2023-08-20T05:25:08;32.10;91.10
17774;DHT22;9011;33.236;-97.118;2023-08-20T05:27:37;32.10;91.20
17774;DHT22;9011;33.236;-97.118;2023-08-20T05:30:08;32.00;91.40
17774;DHT22;9011;33.236;-97.118;2023-08-20T05:32:36;31.90;91.50
17774;DHT22;9011;33.236;-97.118;2023-08-20T05:35:05;32.00;91.60
17774;DHT22;9011;33.236;-97.118;2023-08-20T05:37:33;31.90;91.60
17774;DHT22;9011;33.236;-97.118;2023-08-20T05:40:02;31.80;91.90
17774;DHT22;9011;33.236;-97.118;2023-08-20T05:42:30;31.80;92.20
17774;DHT22;9011;33.236;-97.118;2023-08-20T05:44:58;31.80;92.30
17774;DHT22;9011;33.236;-97.118;2023-08-20T05:47:28;31.80;92.50
17774;DHT22;9011;33.236;-97.118;2023-08-20T05:49:57;31.60;92.80
17774;DHT22;9011;33.236;-97.118;2023-08-20T05:52:25;31.60;92.80
17774;DHT22;9011;33.236;-97.118;2023-08-20T05:54:53;31.60;93.00
17774;DHT22;9011;33.236;-97.118;2023-08-20T05:57:21;31.60;93.20
17774;DHT22;9011;33.236;-97.118;2023-08-20T05:59:50;31.60;93.30
17774;DHT22;9011;33.236;-97.118;2023-08-20T06:02:18;31.50;93.20
17774;DHT22;9011;33.236;-97.118;2023-08-20T06:04:48;31.50;93.10
17774;DHT22;9011;33.236;-97.118;2023-08-20T06:07:17;31.60;93.30
17774;DHT22;9011;33.236;-97.118;2023-08-20T06:09:45;31.50;93.20
17774;DHT22;9011;33.236;-97.118;2023-08-20T06:12:15;31.50;93.20
17774;DHT22;9011;33.236;-97.118;2023-08-20T06:14:43;31.40;93.40
17774;DHT22;9011;33.236;-97.118;2023-08-20T06:17:11;31.40;93.60
17774;DHT22;9011;33.236;-97.118;2023-08-20T06:19:40;31.40;93.40
17774;DHT22;9011;33.236;-97.118;2023-08-20T06:22:10;31.30;93.60
17774;DHT22;9011;33.236;-97.118;2023-08-20T06:24:38;31.10;94.10
17774;DHT22;9011;33.236;-97.118;2023-08-20T06:27:06;31.20;93.70
17774;DHT22;9011;33.236;-97.118;2023-08-20T06:29:34;31.00;93.90
17774;DHT22;9011;33.236;-97.118;2023-08-20T06:32:04;31.10;93.60
17774;DHT22;9011;33.236;-97.118;2023-08-20T06:34:34;31.20;93.70
17774;DHT22;9011;33.236;-97.118;2023-08-20T06:37:03;31.20;93.60
17774;DHT22;9011;33.236;-97.118;2023-08-20T06:39:33;31.10;93.70
17774;DHT22;9011;33.236;-97.118;2023-08-20T06:42:01;31.10;93.60
17774;DHT22;9011;33.236;-97.118;2023-08-20T06:44:29;31.10;93.50
17774;DHT22;9011;33.236;-97.118;2023-08-20T06:46:57;31.00;93.60
17774;DHT22;9011;33.236;-97.118;2023-08-20T06:49:26;31.10;93.90
17774;DHT22;9011;33.236;-97.118;2023-08-20T06:51:54;31.00;93.80
17774;DHT22;9011;33.236;-97.118;2023-08-20T06:54:22;30.90;93.60
17774;DHT22;9011;33.236;-97.118;2023-08-20T06:56:52;30.90;93.60
17774;DHT22;9011;33.236;-97.118;2023-08-20T06:59:20;30.80;93.80
17774;DHT22;9011;33.236;-97.118;2023-08-20T07:01:49;30.80;93.70
17774;DHT22;9011;33.236;-97.118;2023-08-20T07:04:17;30.80;93.80
17774;DHT22;9011;33.236;-97.118;2023-08-20T07:06:45;30.70;94.10
17774;DHT22;9011;33.236;-97.118;2023-08-20T07:09:14;30.70;93.70
17774;DHT22;9011;33.236;-97.118;2023-08-20T07:11:42;30.70;93.80
17774;DHT22;9011;33.236;-97.118;2023-08-20T07:14:12;30.60;93.90
17774;DHT22;9011;33.236;-97.118;2023-08-20T07:16:40;30.60;93.90
17774;DHT22;9011;33.236;-97.118;2023-08-20T07:19:09;30.60;94.00
17774;DHT22;9011;33.236;-97.118;2023-08-20T07:21:37;30.60;94.10
17774;DHT22;9011;33.236;-97.118;2023-08-20T07:24:05;30.50;94.10
17774;DHT22;9011;33.236;-97.118;2023-08-20T07:26:34;30.50;93.90
17774;DHT22;9011;33.236;-97.118;2023-08-20T07:29:02;30.50;93.60
17774;DHT22;9011;33.236;-97.118;2023-08-20T07:31:33;30.50;93.40
17774;DHT22;9011;33.236;-97.118;2023-08-20T07:34:02;30.50;93.50
17774;DHT22;9011;33.236;-97.118;2023-08-20T07:36:31;30.50;93.60
17774;DHT22;9011;33.236;-97.118;2023-08-20T07:38:59;30.50;93.60
17774;DHT22;9011;33.236;-97.118;2023-08-20T07:41:28;30.50;93.90
17774;DHT22;9011;33.236;-97.118;2023-08-20T07:43:56;30.50;94.10
17774;DHT22;9011;33.236;-97.118;2023-08-20T07:46:24;30.50;93.70
17774;DHT22;9011;33.236;-97.118;2023-08-20T07:48:54;30.50;94.10
17774;DHT22;9011;33.236;-97.118;2023-08-20T07:51:23;30.40;93.80
17774;DHT22;9011;33.236;-97.118;2023-08-20T07:53:51;30.40;93.70
17774;DHT22;9011;33.236;-97.118;2023-08-20T07:56:19;30.40;93.60
17774;DHT22;9011;33.236;-97.118;2023-08-20T07:58:48;30.40;93.60
17774;DHT22;9011;33.236;-97.118;2023-08-20T08:01:16;30.30;93.50
17774;DHT22;9011;33.236;-97.118;2023-08-20T08:03:44;30.30;93.50
17774;DHT22;9011;33.236;-97.118;2023-08-20T08:06:15;30.30;93.70
17774;DHT22;9011;33.236;-97.118;2023-08-20T08:08:44;30.30;93.50
17774;DHT22;9011;33.236;-97.118;2023-08-20T08:11:12;30.30;93.50
17774;DHT22;9011;33.236;-97.118;2023-08-20T08:13:40;30.30;93.80
17774;DHT22;9011;33.236;-97.118;2023-08-20T08:16:08;30.30;93.90
17774;DHT22;9011;33.236;-97.118;2023-08-20T08:18:37;30.30;93.80
17774;DHT22;9011;33.236;-97.118;2023-08-20T08:21:05;30.30;93.80
17774;DHT22;9011;33.236;-97.118;2023-08-20T08:23:35;30.20;93.60
17774;DHT22;9011;33.236;-97.118;2023-08-20T08:26:03;30.20;93.80
17774;DHT22;9011;33.236;-97.118;2023-08-20T08:28:32;30.20;93.60
17774;DHT22;9011;33.236;-97.118;2023-08-20T08:31:00;30.20;93.40
17774;DHT22;9011;33.236;-97.118;2023-08-20T08:33:29;30.20;93.80
17774;DHT22;9011;33.236;-97.118;2023-08-20T08:35:57;30.20;93.90
17774;DHT22;9011;33.236;-97.118;2023-08-20T08:38:25;30.20;94.50
17774;DHT22;9011;33.236;-97.118;2023-08-20T08:40:55;30.10;94.30
17774;DHT22;9011;33.236;-97.118;2023-08-20T08:43:24;30.20;94.90
17774;DHT22;9011;33.236;-97.118;2023-08-20T08:45:55;30.10;94.30
17774;DHT22;9011;33.236;-97.118;2023-08-20T08:48:25;30.10;94.30
17774;DHT22;9011;33.236;-97.118;2023-08-20T08:50:54;30.00;94.40
17774;DHT22;9011;33.236;-97.118;2023-08-20T08:53:23;30.00;94.30
17774;DHT22;9011;33.236;-97.118;2023-08-20T08:55:54;29.90;93.90
17774;DHT22;9011;33.236;-97.118;2023-08-20T08:58:22;29.90;93.80
17774;DHT22;9011;33.236;-97.118;2023-08-20T09:00:51;29.80;94.00
17774;DHT22;9011;33.236;-97.118;2023-08-20T09:03:19;29.90;94.30
17774;DHT22;9011;33.236;-97.118;2023-08-20T09:05:48;29.90;94.20
17774;DHT22;9011;33.236;-97.118;2023-08-20T09:08:20;29.80;94.10
17774;DHT22;9011;33.236;-97.118;2023-08-20T09:10:50;29.80;94.10
17774;DHT22;9011;33.236;-97.118;2023-08-20T09:13:23;29.70;94.00
17774;DHT22;9011;33.236;-97.118;2023-08-20T09:15:52;29.60;94.10
17774;DHT22;9011;33.236;-97.118;2023-08-20T09:18:21;29.60;94.30
17774;DHT22;9011;33.236;-97.118;2023-08-20T09:20:49;29.60;94.40
17774;DHT22;9011;33.236;-97.118;2023-08-20T09:23:18;29.60;94.60
17774;DHT22;9011;33.236;-97.118;2023-08-20T09:25:46;29.60;94.70
17774;DHT22;9011;33.236;-97.118;2023-08-20T09:28:14;29.60;94.50
17774;DHT22;9011;33.236;-97.118;2023-08-20T09:30:57;29.40;94.30
17774;DHT22;9011;33.236;-97.118;2023-08-20T09:33:28;29.30;94.50
17774;DHT22;9011;33.236;-97.118;2023-08-20T09:35:56;29.30;94.70
17774;DHT22;9011;33.236;-97.118;2023-08-20T09:38:24;29.30;94.70
17774;DHT22;9011;33.236;-97.118;2023-08-20T09:40:53;29.20;95.00
17774;DHT22;9011;33.236;-97.118;2023-08-20T09:43:25;29.10;95.40
17774;DHT22;9011;33.236;-97.118;2023-08-20T09:45:59;29.00;96.00
17774;DHT22;9011;33.236;-97.118;2023-08-20T09:48:34;28.90;95.90
17774;DHT22;9011;33.236;-97.118;2023-08-20T09:51:06;28.80;95.90
17774;DHT22;9011;33.236;-97.118;2023-08-20T09:53:41;28.80;96.20
17774;DHT22;9011;33.236;-97.118;2023-08-20T09:56:20;28.80;96.20
17774;DHT22;9011;33.236;-97.118;2023-08-20T09:58:49;28.80;96.40
17774;DHT22;9011;33.236;-97.118;2023-08-20T10:01:20;28.60;96.50
17774;DHT22;9011;33.236;-97.118;2023-08-20T10:03:48;28.50;96.90
17774;DHT22;9011;33.236;-97.118;2023-08-20T10:06:18;28.40;97.20
17774;DHT22;9011;33.236;-97.118;2023-08-20T10:08:46;28.30;97.70
17774;DHT22;9011;33.236;-97.118;2023-08-20T10:11:15;28.10;97.70
17774;DHT22;9011;33.236;-97.118;2023-08-20T10:13:44;28.20;97.80
17774;DHT22;9011;33.236;-97.118;2023-08-20T10:16:13;28.20;98.00
17774;DHT22;9011;33.236;-97.118;2023-08-20T10:18:43;28.20;98.10
17774;DHT22;9011;33.236;-97.118;2023-08-20T10:21:13;28.30;97.90
17774;DHT22;9011;33.236;-97.118;2023-08-20T10:23:41;28.30;97.90
17774;DHT22;9011;33.236;-97.118;2023-08-20T10:26:10;28.30;97.80
17774;DHT22;9011;33.236;-97.118;2023-08-20T10:28:40;28.30;97.70
17774;DHT22;9011;33.236;-97.118;2023-08-20T10:31:09;28.30;98.00
17774;DHT22;9011;33.236;-97.118;2023-08-20T10:33:49;28.10;97.90
17774;DHT22;9011;33.236;-97.118;2023-08-20T10:36:19;28.10;98.10
17774;DHT22;9011;33.236;-97.118;2023-08-20T10:38:49;28.00;98.40
17774;DHT22;9011;33.236;-97.118;2023-08-20T10:41:25;27.70;99.00
17774;DHT22;9011;33.236;-97.118;2023-08-20T10:43:57;27.60;99.50
17774;DHT22;9011;33.236;-97.118;2023-08-20T10:46:27;27.60;99.80
17774;DHT22;9011;33.236;-97.118;2023-08-20T10:48:57;27.60;99.90
17774;DHT22;9011;33.236;-97.118;2023-08-20T10:51:29;27.60;99.90
17774;DHT22;9011;33.236;-97.118;2023-08-20T10:54:07;27.60;99.90
17774;DHT22;9011;33.236;-97.118;2023-08-20T10:56:40;27.60;99.90
17774;DHT22;9011;33.236;-97.118;2023-08-20T10:59:09;27.50;99.90
17774;DHT22;9011;33.236;-97.118;2023-08-20T11:01:41;27.60;99.90
17774;DHT22;9011;33.236;-97.118;2023-08-20T11:04:11;27.60;99.90
17774;DHT22;9011;33.236;-97.118;2023-08-20T11:06:42;27.70;99.90
17774;DHT22;9011;33.236;-97.118;2023-08-20T11:09:11;27.60;99.90
17774;DHT22;9011;33.236;-97.118;2023-08-20T11:11:40;27.60;99.90
17774;DHT22;9011;33.236;-97.118;2023-08-20T11:14:12;27.60;99.90
17774;DHT22;9011;33.236;-97.118;2023-08-20T11:16:41;27.50;99.90
17774;DHT22;9011;33.236;-97.118;2023-08-20T11:19:10;27.60;99.90
17774;DHT22;9011;33.236;-97.118;2023-08-20T11:21:39;27.40;99.90
17774;DHT22;9011;33.236;-97.118;2023-08-20T11:24:10;27.20;99.90
17774;DHT22;9011;33.236;-97.118;2023-08-20T11:26:40;27.30;99.90
17774;DHT22;9011;33.236;-97.118;2023-08-20T11:29:09;27.30;99.90
17774;DHT22;9011;33.236;-97.118;2023-08-20T11:31:38;27.40;99.90
17774;DHT22;9011;33.236;-97.118;2023-08-20T11:34:07;27.40;99.90
17774;DHT22;9011;33.236;-97.118;2023-08-20T11:36:36;27.30;99.90
17774;DHT22;9011;33.236;-97.118;2023-08-20T11:39:09;27.40;99.90
17774;DHT22;9011;33.236;-97.118;2023-08-20T11:41:38;27.30;99.90
17774;DHT22;9011;33.236;-97.118;2023-08-20T11:44:08;27.30;99.90
17774;DHT22;9011;33.236;-97.118;2023-08-20T11:46:43;27.30;99.90
17774;DHT22;9011;33.236;-97.118;2023-08-20T11:49:12;27.30;99.90
17774;DHT22;9011;33.236;-97.118;2023-08-20T11:51:41;27.30;99.90
17774;DHT22;9011;33.236;-97.118;2023-08-20T11:54:12;27.30;99.90
17774;DHT22;9011;33.236;-97.118;2023-08-20T11:56:44;27.30;99.90
17774;DHT22;9011;33.236;-97.118;2023-08-20T11:59:13;27.30;99.90
17774;DHT22;9011;33.236;-97.118;2023-08-20T12:01:42;27.30;99.90
17774;DHT22;9011;33.236;-97.118;2023-08-20T12:04:11;27.30;99.90
17774;DHT22;9011;33.236;-97.118;2023-08-20T12:06:39;27.30;99.90
17774;DHT22;9011;33.236;-97.118;2023-08-20T12:09:22;27.20;99.90
17774;DHT22;9011;33.236;-97.118;2023-08-20T12:11:51;27.30;99.90
17774;DHT22;9011;33.236;-97.118;2023-08-20T12:14:22;27.30;99.90
17774;DHT22;9011;33.236;-97.118;2023-08-20T12:16:50;27.30;99.90
17774;DHT22;9011;33.236;-97.118;2023-08-20T12:19:19;27.20;99.90
17774;DHT22;9011;33.236;-97.118;2023-08-20T12:21:47;27.20;99.90
17774;DHT22;9011;33.236;-97.118;2023-08-20T12:24:16;27.10;99.90
17774;DHT22;9011;33.236;-97.118;2023-08-20T12:26:47;27.10;99.90
17774;DHT22;9011;33.236;-97.118;2023-08-20T12:29:15;27.00;99.90
17774;DHT22;9011;33.236;-97.118;2023-08-20T12:31:44;27.00;99.90
17774;DHT22;9011;33.236;-97.118;2023-08-20T12:34:12;27.00;99.90
17774;DHT22;9011;33.236;-97.118;2023-08-20T12:36:40;27.00;99.90
17774;DHT22;9011;33.236;-97.118;2023-08-20T12:39:08;27.00;99.90
17774;DHT22;9011;33.236;-97.118;2023-08-20T12:41:36;27.10;99.90
17774;DHT22;9011;33.236;-97.118;2023-08-20T12:44:06;27.20;99.90
17774;DHT22;9011;33.236;-97.118;2023-08-20T12:46:35;27.20;99.90
17774;DHT22;9011;33.236;-97.118;2023-08-20T12:49:03;27.30;99.90
17774;DHT22;9011;33.236;-97.118;2023-08-20T12:51:31;27.30;99.90
17774;DHT22;9011;33.236;-97.118;2023-08-20T12:54:00;27.30;99.90
17774;DHT22;9011;33.236;-97.118;2023-08-20T12:56:28;27.40;99.90
17774;DHT22;9011;33.236;-97.118;2023-08-20T12:58:56;27.50;99.90
17774;DHT22;9011;33.236;-97.118;2023-08-20T13:01:26;27.60;99.90
17774;DHT22;9011;33.236;-97.118;2023-08-20T13:03:55;27.70;99.90
17774;DHT22;9011;33.236;-97.118;2023-08-20T13:06:24;27.70;99.90
17774;DHT22;9011;33.236;-97.118;2023-08-20T13:08:53;27.80;99.90
17774;DHT22;9011;33.236;-97.118;2023-08-20T13:11:22;27.80;99.90
17774;DHT22;9011;33.236;-97.118;2023-08-20T13:13:53;27.90;99.90
17774;DHT22;9011;33.236;-97.118;2023-08-20T13:16:22;28.10;99.90
17774;DHT22;9011;33.236;-97.118;2023-08-20T13:18:53;28.20;99.90
17774;DHT22;9011;33.236;-97.118;2023-08-20T13:21:21;28.30;99.90
17774;DHT22;9011;33.236;-97.118;2023-08-20T13:23:49;28.40;99.90
17774;DHT22;9011;33.236;-97.118;2023-08-20T13:26:18;28.60;99.90
17774;DHT22;9011;33.236;-97.118;2023-08-20T13:28:48;28.80;99.90
17774;DHT22;9011;33.236;-97.118;2023-08-20T13:31:16;28.90;99.90
17774;DHT22;9011;33.236;-97.118;2023-08-20T13:33:45;29.00;99.90
17774;DHT22;9011;33.236;-97.118;2023-08-20T13:36:14;29.10;99.90
17774;DHT22;9011;33.236;-97.118;2023-08-20T13:38:43;29.20;99.90
17774;DHT22;9011;33.236;-97.118;2023-08-20T13:41:11;29.30;99.90
17774;DHT22;9011;33.236;-97.118;2023-08-20T13:43:40;29.50;99.90
17774;DHT22;9011;33.236;-97.118;2023-08-20T13:46:08;29.60;99.90
17774;DHT22;9011;33.236;-97.118;2023-08-20T13:48:36;29.70;99.90
17774;DHT22;9011;33.236;-97.118;2023-08-20T13:51:04;29.90;99.90
17774;DHT22;9011;33.236;-97.118;2023-08-20T13:53:34;30.10;99.90
17774;DHT22;9011;33.236;-97.118;2023-08-20T13:56:03;30.30;99.90
17774;DHT22;9011;33.236;-97.118;2023-08-20T13:58:31;30.40;99.90
17774;DHT22;9011;33.236;-97.118;2023-08-20T14:00:59;30.60;99.90
17774;DHT22;9011;33.236;-97.118;2023-08-20T14:03:28;30.70;99.90
17774;DHT22;9011;33.236;-97.118;2023-08-20T14:05:56;30.80;99.90
17774;DHT22;9011;33.236;-97.118;2023-08-20T14:08:24;30.90;99.90
17774;DHT22;9011;33.236;-97.118;2023-08-20T14:10:54;31.00;99.90
17774;DHT22;9011;33.236;-97.118;2023-08-20T14:13:22;31.20;99.90
17774;DHT22;9011;33.236;-97.118;2023-08-20T14:15:50;31.40;99.90
17774;DHT22;9011;33.236;-97.118;2023-08-20T14:18:19;31.50;99.90
17774;DHT22;9011;33.236;-97.118;2023-08-20T14:20:47;31.70;98.60
17774;DHT22;9011;33.236;-97.118;2023-08-20T14:23:15;31.80;95.90
17774;DHT22;9011;33.236;-97.118;2023-08-20T14:25:43;32.10;94.80
17774;DHT22;9011;33.236;-97.118;2023-08-20T14:28:13;32.20;94.70
17774;DHT22;9011;33.236;-97.118;2023-08-20T14:30:42;32.50;92.30
17774;DHT22;9011;33.236;-97.118;2023-08-20T14:33:10;32.70;92.20
17774;DHT22;9011;33.236;-97.118;2023-08-20T14:35:38;32.90;90.70
17774;DHT22;9011;33.236;-97.118;2023-08-20T14:38:07;33.00;91.60
17774;DHT22;9011;33.236;-97.118;2023-08-20T14:40:37;33.10;91.60
17774;DHT22;9011;33.236;-97.118;2023-08-20T14:43:06;33.40;90.90
17774;DHT22;9011;33.236;-97.118;2023-08-20T14:45:36;33.50;90.90
17774;DHT22;9011;33.236;-97.118;2023-08-20T14:48:04;33.60;91.00
17774;DHT22;9011;33.236;-97.118;2023-08-20T14:50:33;33.70;91.40
17774;DHT22;9011;33.236;-97.118;2023-08-20T14:53:01;33.80;91.00
17774;DHT22;9011;33.236;-97.118;2023-08-20T14:55:30;34.00;90.70
17774;DHT22;9011;33.236;-97.118;2023-08-20T14:57:58;34.20;89.20
17774;DHT22;9011;33.236;-97.118;2023-08-20T15:00:26;34.30;88.50
17774;DHT22;9011;33.236;-97.118;2023-08-20T15:02:57;34.50;84.60
17774;DHT22;9011;33.236;-97.118;2023-08-20T15:05:26;34.60;84.80
17774;DHT22;9011;33.236;-97.118;2023-08-20T15:07:54;34.80;83.00
17774;DHT22;9011;33.236;-97.118;2023-08-20T15:10:22;35.00;81.40
17774;DHT22;9011;33.236;-97.118;2023-08-20T15:12:51;35.30;81.30
17774;DHT22;9011;33.236;-97.118;2023-08-20T15:15:19;35.40;80.90
17774;DHT22;9011;33.236;-97.118;2023-08-20T15:17:48;35.60;80.80
17774;DHT22;9011;33.236;-97.118;2023-08-20T15:20:19;35.80;80.10
17774;DHT22;9011;33.236;-97.118;2023-08-20T15:22:47;35.80;80.30
17774;DHT22;9011;33.236;-97.118;2023-08-20T15:25:16;36.00;79.40
17774;DHT22;9011;33.236;-97.118;2023-08-20T15:27:45;36.10;79.50